sensor_id;sensor_type;location;lat;lon;timestamp;P1;durP1;ratioP1;P2;durP2;ratioP2
72115;SDS011;59991;52.140;5.428;2022-09-09T00:00:25;1.27;;;1.17;;
72115;SDS011;59991;52.140;5.428;2022-09-09T00:01:03;1.50;;;1.20;;
72115;SDS011;59991;52.140;5.428;2022-09-09T00:01:54;2.47;;;1.42;;
72115;SDS011;59991;52.140;5.428;2022-09-09T00:02:32;4.00;;;1.65;;
72115;SDS011;59991;52.140;5.428;2022-09-09T00:03:11;2.53;;;1.40;;
72115;SDS011;59991;52.140;5.428;2022-09-09T00:03:52;2.67;;;1.35;;
72115;SDS011;59991;52.140;5.428;2022-09-09T00:04:30;3.30;;;1.27;;
72115;SDS011;59991;52.140;5.428;2022-09-09T00:08:24;2.07;;;1.43;;
72115;SDS011;59991;52.140;5.428;2022-09-09T00:09:47;2.35;;;1.73;;
72115;SDS011;59991;52.140;5.428;2022-09-09T00:11:11;1.42;;;1.33;;
72115;SDS011;59991;52.140;5.428;2022-09-09T00:11:51;1.58;;;1.40;;
72115;SDS011;59991;52.140;5.428;2022-09-09T00:12:37;8.38;;;1.52;;
72115;SDS011;59991;52.140;5.428;2022-09-09T00:13:28;2.10;;;2.00;;
72115;SDS011;59991;52.140;5.428;2022-09-09T00:14:08;1.65;;;1.45;;
72115;SDS011;59991;52.140;5.428;2022-09-09T00:14:47;1.08;;;0.98;;
72115;SDS011;59991;52.140;5.428;2022-09-09T00:15:25;3.43;;;1.53;;
72115;SDS011;59991;52.140;5.428;2022-09-09T00:16:17;10.98;;;2.10;;
72115;SDS011;59991;52.140;5.428;2022-09-09T00:16:57;1.65;;;1.55;;
72115;SDS011;59991;52.140;5.428;2022-09-09T00:19:46;1.42;;;1.30;;
72115;SDS011;59991;52.140;5.428;2022-09-09T00:20:35;1.17;;;1.08;;
72115;SDS011;59991;52.140;5.428;2022-09-09T00:21:26;2.00;;;1.38;;
72115;SDS011;59991;52.140;5.428;2022-09-09T00:22:48;2.75;;;1.15;;
72115;SDS011;59991;52.140;5.428;2022-09-09T00:23:31;1.60;;;1.33;;
72115;SDS011;59991;52.140;5.428;2022-09-09T00:24:11;4.25;;;1.58;;
72115;SDS011;59991;52.140;5.428;2022-09-09T00:25:08;2.35;;;1.00;;
72115;SDS011;59991;52.140;5.428;2022-09-09T00:25:47;1.35;;;1.20;;
72115;SDS011;59991;52.140;5.428;2022-09-09T00:27:43;1.40;;;1.30;;
72115;SDS011;59991;52.140;5.428;2022-09-09T00:28:13;3.63;;;1.50;;
72115;SDS011;59991;52.140;5.428;2022-09-09T00:29:53;1.90;;;1.80;;
72115;SDS011;59991;52.140;5.428;2022-09-09T00:30:31;1.23;;;0.98;;
72115;SDS011;59991;52.140;5.428;2022-09-09T00:31:13;1.67;;;1.17;;
72115;SDS011;59991;52.140;5.428;2022-09-09T00:31:47;2.22;;;1.80;;
72115;SDS011;59991;52.140;5.428;2022-09-09T00:32:19;1.35;;;1.25;;
72115;SDS011;59991;52.140;5.428;2022-09-09T00:32:58;1.58;;;1.40;;
72115;SDS011;59991;52.140;5.428;2022-09-09T00:33:31;1.70;;;1.23;;
72115;SDS011;59991;52.140;5.428;2022-09-09T00:34:04;2.72;;;1.48;;
72115;SDS011;59991;52.140;5.428;2022-09-09T00:35:18;3.78;;;1.58;;
72115;SDS011;59991;52.140;5.428;2022-09-09T00:35:44;2.33;;;1.73;;
72115;SDS011;59991;52.140;5.428;2022-09-09T00:36:18;3.78;;;1.75;;
72115;SDS011;59991;52.140;5.428;2022-09-09T00:36:56;1.77;;;1.50;;
72115;SDS011;59991;52.140;5.428;2022-09-09T00:37:28;2.70;;;2.20;;
72115;SDS011;59991;52.140;5.428;2022-09-09T00:38:10;4.78;;;2.03;;
72115;SDS011;59991;52.140;5.428;2022-09-09T00:38:52;2.80;;;1.48;;
72115;SDS011;59991;52.140;5.428;2022-09-09T00:40:13;2.47;;;2.28;;
72115;SDS011;59991;52.140;5.428;2022-09-09T00:40:56;2.58;;;2.00;;
72115;SDS011;59991;52.140;5.428;2022-09-09T00:43:57;3.22;;;1.60;;
72115;SDS011;59991;52.140;5.428;2022-09-09T00:44:35;2.23;;;2.13;;
72115;SDS011;59991;52.140;5.428;2022-09-09T00:48:08;2.13;;;1.88;;
72115;SDS011;59991;52.140;5.428;2022-09-09T00:51:36;3.20;;;1.65;;
72115;SDS011;59991;52.140;5.428;2022-09-09T00:53:07;2.88;;;2.42;;
72115;SDS011;59991;52.140;5.428;2022-09-09T00:53:39;3.13;;;1.73;;
72115;SDS011;59991;52.140;5.428;2022-09-09T00:54:40;1.77;;;1.55;;
72115;SDS011;59991;52.140;5.428;2022-09-09T00:55:36;7.63;;;2.03;;
72115;SDS011;59991;52.140;5.428;2022-09-09T00:56:21;3.53;;;2.63;;
72115;SDS011;59991;52.140;5.428;2022-09-09T00:57:44;3.03;;;2.83;;
72115;SDS011;59991;52.140;5.428;2022-09-09T00:58:18;4.47;;;2.28;;
72115;SDS011;59991;52.140;5.428;2022-09-09T00:58:59;4.18;;;2.20;;
72115;SDS011;59991;52.140;5.428;2022-09-09T00:59:50;2.92;;;2.35;;
72115;SDS011;59991;52.140;5.428;2022-09-09T01:00:27;3.03;;;2.83;;
72115;SDS011;59991;52.140;5.428;2022-09-09T01:01:07;3.80;;;2.43;;
72115;SDS011;59991;52.140;5.428;2022-09-09T01:01:43;2.67;;;2.47;;
72115;SDS011;59991;52.140;5.428;2022-09-09T01:02:32;3.05;;;2.58;;
72115;SDS011;59991;52.140;5.428;2022-09-09T01:03:42;4.80;;;2.53;;
72115;SDS011;59991;52.140;5.428;2022-09-09T01:04:23;5.05;;;2.67;;
72115;SDS011;59991;52.140;5.428;2022-09-09T01:05:15;4.47;;;2.55;;
72115;SDS011;59991;52.140;5.428;2022-09-09T01:06:43;4.40;;;3.25;;
72115;SDS011;59991;52.140;5.428;2022-09-09T01:07:23;2.90;;;2.55;;
72115;SDS011;59991;52.140;5.428;2022-09-09T01:07:54;2.40;;;2.20;;
72115;SDS011;59991;52.140;5.428;2022-09-09T01:09:26;3.17;;;2.17;;
72115;SDS011;59991;52.140;5.428;2022-09-09T01:10:04;4.13;;;2.85;;
72115;SDS011;59991;52.140;5.428;2022-09-09T01:10:49;2.75;;;2.53;;
72115;SDS011;59991;52.140;5.428;2022-09-09T01:11:30;3.15;;;2.55;;
72115;SDS011;59991;52.140;5.428;2022-09-09T01:12:09;4.35;;;2.33;;
72115;SDS011;59991;52.140;5.428;2022-09-09T01:12:46;2.85;;;2.08;;
72115;SDS011;59991;52.140;5.428;2022-09-09T01:13:24;4.13;;;3.03;;
72115;SDS011;59991;52.140;5.428;2022-09-09T01:14:10;5.00;;;3.00;;
72115;SDS011;59991;52.140;5.428;2022-09-09T01:14:49;7.63;;;2.90;;
72115;SDS011;59991;52.140;5.428;2022-09-09T01:15:25;4.17;;;3.07;;
72115;SDS011;59991;52.140;5.428;2022-09-09T01:16:00;2.70;;;2.47;;
72115;SDS011;59991;52.140;5.428;2022-09-09T01:16:33;2.60;;;2.40;;
72115;SDS011;59991;52.140;5.428;2022-09-09T01:17:13;7.22;;;2.97;;
72115;SDS011;59991;52.140;5.428;2022-09-09T01:18:43;6.20;;;2.70;;
72115;SDS011;59991;52.140;5.428;2022-09-09T01:19:24;3.50;;;2.20;;
72115;SDS011;59991;52.140;5.428;2022-09-09T01:20:13;3.55;;;2.53;;
72115;SDS011;59991;52.140;5.428;2022-09-09T01:22:03;6.32;;;2.65;;
72115;SDS011;59991;52.140;5.428;2022-09-09T01:26:54;5.03;;;2.28;;
72115;SDS011;59991;52.140;5.428;2022-09-09T01:27:29;3.33;;;2.63;;
72115;SDS011;59991;52.140;5.428;2022-09-09T01:28:02;3.20;;;2.53;;
72115;SDS011;59991;52.140;5.428;2022-09-09T01:28:39;3.00;;;2.70;;
72115;SDS011;59991;52.140;5.428;2022-09-09T01:29:14;2.97;;;2.05;;
72115;SDS011;59991;52.140;5.428;2022-09-09T01:29:47;4.73;;;2.37;;
72115;SDS011;59991;52.140;5.428;2022-09-09T01:30:18;3.40;;;2.88;;
72115;SDS011;59991;52.140;5.428;2022-09-09T01:30:51;3.75;;;2.25;;
72115;SDS011;59991;52.140;5.428;2022-09-09T01:31:26;3.25;;;2.95;;
72115;SDS011;59991;52.140;5.428;2022-09-09T01:32:39;3.30;;;2.83;;
72115;SDS011;59991;52.140;5.428;2022-09-09T01:33:13;4.82;;;2.50;;
72115;SDS011;59991;52.140;5.428;2022-09-09T01:33:46;4.05;;;2.78;;
72115;SDS011;59991;52.140;5.428;2022-09-09T01:34:18;3.13;;;2.92;;
72115;SDS011;59991;52.140;5.428;2022-09-09T01:34:50;3.17;;;2.58;;
72115;SDS011;59991;52.140;5.428;2022-09-09T01:35:31;5.13;;;2.47;;
72115;SDS011;59991;52.140;5.428;2022-09-09T01:36:12;3.85;;;2.75;;
72115;SDS011;59991;52.140;5.428;2022-09-09T01:37:41;3.30;;;3.00;;
72115;SDS011;59991;52.140;5.428;2022-09-09T01:38:13;3.20;;;2.80;;
72115;SDS011;59991;52.140;5.428;2022-09-09T01:38:45;3.42;;;2.67;;
72115;SDS011;59991;52.140;5.428;2022-09-09T01:39:16;3.28;;;2.83;;
72115;SDS011;59991;52.140;5.428;2022-09-09T01:39:48;3.40;;;2.97;;
72115;SDS011;59991;52.140;5.428;2022-09-09T01:40:20;6.00;;;3.00;;
72115;SDS011;59991;52.140;5.428;2022-09-09T01:40:51;3.05;;;2.75;;
72115;SDS011;59991;52.140;5.428;2022-09-09T01:41:24;3.80;;;2.73;;
72115;SDS011;59991;52.140;5.428;2022-09-09T01:41:55;3.70;;;3.35;;
72115;SDS011;59991;52.140;5.428;2022-09-09T01:42:27;2.92;;;2.72;;
72115;SDS011;59991;52.140;5.428;2022-09-09T01:42:59;3.42;;;2.75;;
72115;SDS011;59991;52.140;5.428;2022-09-09T01:43:30;3.30;;;3.00;;
72115;SDS011;59991;52.140;5.428;2022-09-09T01:44:02;4.25;;;3.65;;
72115;SDS011;59991;52.140;5.428;2022-09-09T01:44:34;3.88;;;3.50;;
72115;SDS011;59991;52.140;5.428;2022-09-09T01:45:07;3.20;;;3.00;;
72115;SDS011;59991;52.140;5.428;2022-09-09T01:45:40;3.47;;;2.63;;
72115;SDS011;59991;52.140;5.428;2022-09-09T01:46:14;4.20;;;3.20;;
72115;SDS011;59991;52.140;5.428;2022-09-09T01:46:47;3.60;;;3.30;;
72115;SDS011;59991;52.140;5.428;2022-09-09T01:47:18;5.22;;;2.80;;
72115;SDS011;59991;52.140;5.428;2022-09-09T01:47:50;4.22;;;2.80;;
72115;SDS011;59991;52.140;5.428;2022-09-09T01:48:24;3.85;;;2.90;;
72115;SDS011;59991;52.140;5.428;2022-09-09T01:48:56;3.63;;;3.30;;
72115;SDS011;59991;52.140;5.428;2022-09-09T01:49:29;3.40;;;2.70;;
72115;SDS011;59991;52.140;5.428;2022-09-09T01:50:00;3.40;;;3.10;;
72115;SDS011;59991;52.140;5.428;2022-09-09T01:50:32;3.67;;;3.15;;
72115;SDS011;59991;52.140;5.428;2022-09-09T01:51:04;4.43;;;3.50;;
72115;SDS011;59991;52.140;5.428;2022-09-09T01:51:36;3.28;;;2.97;;
72115;SDS011;59991;52.140;5.428;2022-09-09T01:52:09;5.70;;;3.77;;
72115;SDS011;59991;52.140;5.428;2022-09-09T01:52:41;3.47;;;2.80;;
72115;SDS011;59991;52.140;5.428;2022-09-09T01:53:15;3.85;;;3.47;;
72115;SDS011;59991;52.140;5.428;2022-09-09T01:53:48;4.20;;;3.22;;
72115;SDS011;59991;52.140;5.428;2022-09-09T01:54:20;4.22;;;3.25;;
72115;SDS011;59991;52.140;5.428;2022-09-09T01:54:55;3.60;;;3.30;;
72115;SDS011;59991;52.140;5.428;2022-09-09T01:55:35;7.45;;;3.75;;
72115;SDS011;59991;52.140;5.428;2022-09-09T01:56:16;4.10;;;3.70;;
72115;SDS011;59991;52.140;5.428;2022-09-09T01:58:56;3.23;;;2.93;;
72115;SDS011;59991;52.140;5.428;2022-09-09T02:00:19;4.13;;;3.83;;
72115;SDS011;59991;52.140;5.428;2022-09-09T02:00:54;3.83;;;3.45;;
72115;SDS011;59991;52.140;5.428;2022-09-09T02:01:43;3.75;;;3.05;;
72115;SDS011;59991;52.140;5.428;2022-09-09T02:02:32;3.35;;;3.13;;
72115;SDS011;59991;52.140;5.428;2022-09-09T02:03:20;5.47;;;3.53;;
72115;SDS011;59991;52.140;5.428;2022-09-09T02:03:56;5.45;;;3.80;;
72115;SDS011;59991;52.140;5.428;2022-09-09T02:04:40;4.03;;;3.60;;
72115;SDS011;59991;52.140;5.428;2022-09-09T02:06:51;3.72;;;3.38;;
72115;SDS011;59991;52.140;5.428;2022-09-09T02:07:29;5.05;;;3.53;;
72115;SDS011;59991;52.140;5.428;2022-09-09T02:08:33;4.47;;;3.40;;
72115;SDS011;59991;52.140;5.428;2022-09-09T02:09:11;4.00;;;3.35;;
72115;SDS011;59991;52.140;5.428;2022-09-09T02:09:45;4.20;;;3.80;;
72115;SDS011;59991;52.140;5.428;2022-09-09T02:10:35;3.83;;;3.53;;
72115;SDS011;59991;52.140;5.428;2022-09-09T02:11:49;3.75;;;3.45;;
72115;SDS011;59991;52.140;5.428;2022-09-09T02:12:27;4.25;;;3.20;;
72115;SDS011;59991;52.140;5.428;2022-09-09T02:13:02;4.57;;;3.83;;
72115;SDS011;59991;52.140;5.428;2022-09-09T02:13:38;4.63;;;4.22;;
72115;SDS011;59991;52.140;5.428;2022-09-09T02:14:14;4.13;;;3.30;;
72115;SDS011;59991;52.140;5.428;2022-09-09T02:14:51;4.80;;;4.00;;
72115;SDS011;59991;52.140;5.428;2022-09-09T02:15:32;3.40;;;3.08;;
72115;SDS011;59991;52.140;5.428;2022-09-09T02:16:18;4.05;;;3.47;;
72115;SDS011;59991;52.140;5.428;2022-09-09T02:17:07;4.38;;;3.80;;
72115;SDS011;59991;52.140;5.428;2022-09-09T02:17:41;4.30;;;3.78;;
72115;SDS011;59991;52.140;5.428;2022-09-09T02:18:14;4.25;;;3.95;;
72115;SDS011;59991;52.140;5.428;2022-09-09T02:18:52;4.00;;;3.70;;
72115;SDS011;59991;52.140;5.428;2022-09-09T02:19:32;4.33;;;3.93;;
72115;SDS011;59991;52.140;5.428;2022-09-09T02:20:07;5.30;;;3.97;;
72115;SDS011;59991;52.140;5.428;2022-09-09T02:20:43;4.18;;;3.70;;
72115;SDS011;59991;52.140;5.428;2022-09-09T02:21:17;4.65;;;4.15;;
72115;SDS011;59991;52.140;5.428;2022-09-09T02:21:48;6.95;;;3.95;;
72115;SDS011;59991;52.140;5.428;2022-09-09T02:22:22;4.35;;;3.53;;
72115;SDS011;59991;52.140;5.428;2022-09-09T02:22:55;4.18;;;3.80;;
72115;SDS011;59991;52.140;5.428;2022-09-09T02:23:27;4.70;;;4.10;;
72115;SDS011;59991;52.140;5.428;2022-09-09T02:24:00;6.35;;;4.15;;
72115;SDS011;59991;52.140;5.428;2022-09-09T02:24:36;3.72;;;3.28;;
72115;SDS011;59991;52.140;5.428;2022-09-09T02:25:12;5.53;;;3.83;;
72115;SDS011;59991;52.140;5.428;2022-09-09T02:25:46;3.97;;;3.67;;
72115;SDS011;59991;52.140;5.428;2022-09-09T02:26:19;5.72;;;3.70;;
72115;SDS011;59991;52.140;5.428;2022-09-09T02:26:53;4.15;;;3.70;;
72115;SDS011;59991;52.140;5.428;2022-09-09T02:27:26;6.30;;;4.10;;
72115;SDS011;59991;52.140;5.428;2022-09-09T02:27:58;3.75;;;3.45;;
72115;SDS011;59991;52.140;5.428;2022-09-09T02:28:30;5.25;;;3.90;;
72115;SDS011;59991;52.140;5.428;2022-09-09T02:29:04;5.10;;;3.53;;
72115;SDS011;59991;52.140;5.428;2022-09-09T02:29:40;4.07;;;3.67;;
72115;SDS011;59991;52.140;5.428;2022-09-09T02:30:13;4.72;;;3.55;;
72115;SDS011;59991;52.140;5.428;2022-09-09T02:30:45;6.60;;;3.57;;
72115;SDS011;59991;52.140;5.428;2022-09-09T02:31:20;6.25;;;3.90;;
72115;SDS011;59991;52.140;5.428;2022-09-09T02:31:56;4.53;;;3.60;;
72115;SDS011;59991;52.140;5.428;2022-09-09T02:32:32;5.10;;;4.28;;
72115;SDS011;59991;52.140;5.428;2022-09-09T02:33:06;4.28;;;3.20;;
72115;SDS011;59991;52.140;5.428;2022-09-09T02:33:40;5.70;;;4.05;;
72115;SDS011;59991;52.140;5.428;2022-09-09T02:34:14;4.32;;;3.92;;
72115;SDS011;59991;52.140;5.428;2022-09-09T02:34:49;12.25;;;3.78;;
72115;SDS011;59991;52.140;5.428;2022-09-09T02:35:26;5.32;;;3.90;;
72115;SDS011;59991;52.140;5.428;2022-09-09T02:36:01;4.75;;;3.70;;
72115;SDS011;59991;52.140;5.428;2022-09-09T02:36:34;6.53;;;3.37;;
72115;SDS011;59991;52.140;5.428;2022-09-09T02:37:08;4.95;;;3.42;;
72115;SDS011;59991;52.140;5.428;2022-09-09T02:37:42;4.60;;;3.88;;
72115;SDS011;59991;52.140;5.428;2022-09-09T02:38:17;6.15;;;4.07;;
72115;SDS011;59991;52.140;5.428;2022-09-09T02:38:52;4.20;;;3.58;;
72115;SDS011;59991;52.140;5.428;2022-09-09T02:39:24;4.65;;;3.47;;
72115;SDS011;59991;52.140;5.428;2022-09-09T02:39:56;3.75;;;3.33;;
72115;SDS011;59991;52.140;5.428;2022-09-09T02:40:27;4.75;;;3.90;;
72115;SDS011;59991;52.140;5.428;2022-09-09T02:40:59;3.95;;;3.60;;
72115;SDS011;59991;52.140;5.428;2022-09-09T02:41:32;6.72;;;3.85;;
72115;SDS011;59991;52.140;5.428;2022-09-09T02:42:04;4.37;;;3.20;;
72115;SDS011;59991;52.140;5.428;2022-09-09T02:42:39;4.97;;;3.40;;
72115;SDS011;59991;52.140;5.428;2022-09-09T02:43:11;3.83;;;3.42;;
72115;SDS011;59991;52.140;5.428;2022-09-09T02:43:47;4.40;;;4.10;;
72115;SDS011;59991;52.140;5.428;2022-09-09T02:44:18;4.97;;;3.78;;
72115;SDS011;59991;52.140;5.428;2022-09-09T02:44:50;4.55;;;4.15;;
72115;SDS011;59991;52.140;5.428;2022-09-09T02:45:25;4.18;;;3.85;;
72115;SDS011;59991;52.140;5.428;2022-09-09T02:47:35;4.05;;;3.75;;
72115;SDS011;59991;52.140;5.428;2022-09-09T02:48:14;7.47;;;3.80;;
72115;SDS011;59991;52.140;5.428;2022-09-09T02:50:33;4.20;;;3.75;;
72115;SDS011;59991;52.140;5.428;2022-09-09T02:51:08;4.28;;;3.92;;
72115;SDS011;59991;52.140;5.428;2022-09-09T02:52:08;3.75;;;3.28;;
72115;SDS011;59991;52.140;5.428;2022-09-09T02:52:54;4.80;;;4.30;;
72115;SDS011;59991;52.140;5.428;2022-09-09T02:54:23;4.43;;;4.03;;
72115;SDS011;59991;52.140;5.428;2022-09-09T02:55:06;9.02;;;3.90;;
72115;SDS011;59991;52.140;5.428;2022-09-09T02:55:49;7.77;;;3.93;;
72115;SDS011;59991;52.140;5.428;2022-09-09T02:56:29;8.93;;;3.25;;
72115;SDS011;59991;52.140;5.428;2022-09-09T02:57:21;4.50;;;3.78;;
72115;SDS011;59991;52.140;5.428;2022-09-09T02:57:55;4.35;;;4.05;;
72115;SDS011;59991;52.140;5.428;2022-09-09T02:58:28;4.13;;;3.83;;
72115;SDS011;59991;52.140;5.428;2022-09-09T02:58:59;5.80;;;3.65;;
72115;SDS011;59991;52.140;5.428;2022-09-09T02:59:31;4.45;;;4.07;;
72115;SDS011;59991;52.140;5.428;2022-09-09T03:00:02;4.43;;;4.03;;
72115;SDS011;59991;52.140;5.428;2022-09-09T03:00:35;4.43;;;3.75;;
72115;SDS011;59991;52.140;5.428;2022-09-09T03:01:10;3.97;;;3.67;;
72115;SDS011;59991;52.140;5.428;2022-09-09T03:01:42;5.63;;;3.70;;
72115;SDS011;59991;52.140;5.428;2022-09-09T03:02:14;5.32;;;3.92;;
72115;SDS011;59991;52.140;5.428;2022-09-09T03:02:45;5.72;;;3.28;;
72115;SDS011;59991;52.140;5.428;2022-09-09T03:03:17;5.03;;;4.07;;
72115;SDS011;59991;52.140;5.428;2022-09-09T03:03:50;5.03;;;4.07;;
72115;SDS011;59991;52.140;5.428;2022-09-09T03:04:22;4.57;;;3.80;;
72115;SDS011;59991;52.140;5.428;2022-09-09T03:04:53;5.65;;;3.25;;
72115;SDS011;59991;52.140;5.428;2022-09-09T03:05:25;4.75;;;3.75;;
72115;SDS011;59991;52.140;5.428;2022-09-09T03:05:57;4.53;;;4.13;;
72115;SDS011;59991;52.140;5.428;2022-09-09T03:06:28;4.78;;;4.25;;
72115;SDS011;59991;52.140;5.428;2022-09-09T03:06:59;4.00;;;3.60;;
72115;SDS011;59991;52.140;5.428;2022-09-09T03:07:31;4.03;;;3.65;;
72115;SDS011;59991;52.140;5.428;2022-09-09T03:08:03;4.03;;;3.72;;
72115;SDS011;59991;52.140;5.428;2022-09-09T03:08:35;5.15;;;4.38;;
72115;SDS011;59991;52.140;5.428;2022-09-09T03:09:07;4.80;;;3.78;;
72115;SDS011;59991;52.140;5.428;2022-09-09T03:09:39;5.55;;;3.95;;
72115;SDS011;59991;52.140;5.428;2022-09-09T03:10:11;7.53;;;5.13;;
72115;SDS011;59991;52.140;5.428;2022-09-09T03:10:42;4.25;;;3.95;;
72115;SDS011;59991;52.140;5.428;2022-09-09T03:11:13;4.65;;;4.25;;
72115;SDS011;59991;52.140;5.428;2022-09-09T03:11:45;4.65;;;4.25;;
72115;SDS011;59991;52.140;5.428;2022-09-09T03:12:16;6.47;;;4.23;;
72115;SDS011;59991;52.140;5.428;2022-09-09T03:12:48;5.55;;;4.13;;
72115;SDS011;59991;52.140;5.428;2022-09-09T03:13:19;5.65;;;3.92;;
72115;SDS011;59991;52.140;5.428;2022-09-09T03:13:50;4.60;;;4.20;;
72115;SDS011;59991;52.140;5.428;2022-09-09T03:14:22;4.75;;;4.18;;
72115;SDS011;59991;52.140;5.428;2022-09-09T03:14:56;6.45;;;4.00;;
72115;SDS011;59991;52.140;5.428;2022-09-09T03:15:27;6.60;;;4.35;;
72115;SDS011;59991;52.140;5.428;2022-09-09T03:16:01;4.63;;;4.22;;
72115;SDS011;59991;52.140;5.428;2022-09-09T03:16:32;5.60;;;4.40;;
72115;SDS011;59991;52.140;5.428;2022-09-09T03:17:05;4.85;;;4.05;;
72115;SDS011;59991;52.140;5.428;2022-09-09T03:17:37;5.67;;;4.30;;
72115;SDS011;59991;52.140;5.428;2022-09-09T03:18:08;4.35;;;3.83;;
72115;SDS011;59991;52.140;5.428;2022-09-09T03:18:40;6.90;;;4.25;;
72115;SDS011;59991;52.140;5.428;2022-09-09T03:19:11;10.45;;;4.57;;
72115;SDS011;59991;52.140;5.428;2022-09-09T03:19:43;4.78;;;4.38;;
72115;SDS011;59991;52.140;5.428;2022-09-09T03:20:15;5.22;;;4.72;;
72115;SDS011;59991;52.140;5.428;2022-09-09T03:20:46;5.68;;;3.83;;
72115;SDS011;59991;52.140;5.428;2022-09-09T03:21:22;5.78;;;4.30;;
72115;SDS011;59991;52.140;5.428;2022-09-09T03:21:53;6.45;;;4.85;;
72115;SDS011;59991;52.140;5.428;2022-09-09T03:22:25;7.07;;;4.50;;
72115;SDS011;59991;52.140;5.428;2022-09-09T03:22:57;4.73;;;4.33;;
72115;SDS011;59991;52.140;5.428;2022-09-09T03:23:30;5.78;;;3.60;;
72115;SDS011;59991;52.140;5.428;2022-09-09T03:24:02;5.28;;;4.78;;
72115;SDS011;59991;52.140;5.428;2022-09-09T03:24:34;5.38;;;4.57;;
72115;SDS011;59991;52.140;5.428;2022-09-09T03:25:06;5.05;;;4.55;;
72115;SDS011;59991;52.140;5.428;2022-09-09T03:25:37;4.72;;;4.30;;
72115;SDS011;59991;52.140;5.428;2022-09-09T03:26:09;5.22;;;4.75;;
72115;SDS011;59991;52.140;5.428;2022-09-09T03:26:41;4.70;;;4.40;;
72115;SDS011;59991;52.140;5.428;2022-09-09T03:27:15;6.15;;;4.47;;
72115;SDS011;59991;52.140;5.428;2022-09-09T03:27:47;5.55;;;4.40;;
72115;SDS011;59991;52.140;5.428;2022-09-09T03:28:19;6.10;;;4.80;;
72115;SDS011;59991;52.140;5.428;2022-09-09T03:28:51;5.93;;;4.40;;
72115;SDS011;59991;52.140;5.428;2022-09-09T03:29:23;6.00;;;4.50;;
72115;SDS011;59991;52.140;5.428;2022-09-09T03:29:54;5.53;;;5.10;;
72115;SDS011;59991;52.140;5.428;2022-09-09T03:30:27;5.30;;;4.18;;
72115;SDS011;59991;52.140;5.428;2022-09-09T03:31:02;7.82;;;4.35;;
72115;SDS011;59991;52.140;5.428;2022-09-09T03:31:35;4.35;;;3.95;;
72115;SDS011;59991;52.140;5.428;2022-09-09T03:32:07;5.60;;;4.93;;
72115;SDS011;59991;52.140;5.428;2022-09-09T03:32:41;4.90;;;4.60;;
72115;SDS011;59991;52.140;5.428;2022-09-09T03:33:18;5.43;;;4.93;;
72115;SDS011;59991;52.140;5.428;2022-09-09T03:33:50;5.70;;;5.13;;
72115;SDS011;59991;52.140;5.428;2022-09-09T03:34:21;5.28;;;4.80;;
72115;SDS011;59991;52.140;5.428;2022-09-09T03:34:52;6.30;;;4.32;;
72115;SDS011;59991;52.140;5.428;2022-09-09T03:35:24;5.35;;;4.40;;
72115;SDS011;59991;52.140;5.428;2022-09-09T03:35:56;5.15;;;4.65;;
72115;SDS011;59991;52.140;5.428;2022-09-09T03:36:27;6.00;;;4.70;;
72115;SDS011;59991;52.140;5.428;2022-09-09T03:36:59;4.60;;;4.22;;
72115;SDS011;59991;52.140;5.428;2022-09-09T03:37:30;5.18;;;4.78;;
72115;SDS011;59991;52.140;5.428;2022-09-09T03:38:02;4.82;;;4.50;;
72115;SDS011;59991;52.140;5.428;2022-09-09T03:38:34;4.60;;;4.22;;
72115;SDS011;59991;52.140;5.428;2022-09-09T03:39:05;4.67;;;4.27;;
72115;SDS011;59991;52.140;5.428;2022-09-09T03:39:37;5.43;;;4.80;;
72115;SDS011;59991;52.140;5.428;2022-09-09T03:40:09;7.38;;;4.75;;
72115;SDS011;59991;52.140;5.428;2022-09-09T03:40:48;5.40;;;4.60;;
72115;SDS011;59991;52.140;5.428;2022-09-09T03:41:25;6.32;;;4.55;;
72115;SDS011;59991;52.140;5.428;2022-09-09T03:41:57;4.57;;;4.03;;
72115;SDS011;59991;52.140;5.428;2022-09-09T03:42:28;6.32;;;4.07;;
72115;SDS011;59991;52.140;5.428;2022-09-09T03:42:59;4.43;;;4.03;;
72115;SDS011;59991;52.140;5.428;2022-09-09T03:43:31;5.22;;;4.75;;
72115;SDS011;59991;52.140;5.428;2022-09-09T03:44:03;4.80;;;4.40;;
72115;SDS011;59991;52.140;5.428;2022-09-09T03:44:35;5.67;;;5.03;;
72115;SDS011;59991;52.140;5.428;2022-09-09T03:45:07;4.85;;;4.38;;
72115;SDS011;59991;52.140;5.428;2022-09-09T03:45:40;5.07;;;4.57;;
72115;SDS011;59991;52.140;5.428;2022-09-09T03:46:21;4.55;;;4.20;;
72115;SDS011;59991;52.140;5.428;2022-09-09T03:46:54;5.10;;;4.22;;
72115;SDS011;59991;52.140;5.428;2022-09-09T03:47:25;4.60;;;4.13;;
72115;SDS011;59991;52.140;5.428;2022-09-09T03:47:56;7.05;;;4.47;;
72115;SDS011;59991;52.140;5.428;2022-09-09T03:48:28;5.63;;;5.20;;
72115;SDS011;59991;52.140;5.428;2022-09-09T03:49:00;7.30;;;4.80;;
72115;SDS011;59991;52.140;5.428;2022-09-09T03:49:32;5.10;;;4.60;;
72115;SDS011;59991;52.140;5.428;2022-09-09T03:50:04;4.90;;;4.33;;
72115;SDS011;59991;52.140;5.428;2022-09-09T03:50:39;5.40;;;4.90;;
72115;SDS011;59991;52.140;5.428;2022-09-09T03:51:15;5.97;;;4.68;;
72115;SDS011;59991;52.140;5.428;2022-09-09T03:51:47;4.82;;;4.30;;
72115;SDS011;59991;52.140;5.428;2022-09-09T03:52:18;5.45;;;4.95;;
72115;SDS011;59991;52.140;5.428;2022-09-09T03:52:53;5.13;;;4.43;;
72115;SDS011;59991;52.140;5.428;2022-09-09T03:53:25;5.75;;;5.13;;
72115;SDS011;59991;52.140;5.428;2022-09-09T03:53:56;6.75;;;4.38;;
72115;SDS011;59991;52.140;5.428;2022-09-09T03:54:29;5.18;;;4.75;;
72115;SDS011;59991;52.140;5.428;2022-09-09T03:55:00;4.70;;;4.30;;
72115;SDS011;59991;52.140;5.428;2022-09-09T03:55:32;5.53;;;5.10;;
72115;SDS011;59991;52.140;5.428;2022-09-09T03:56:04;4.32;;;3.97;;
72115;SDS011;59991;52.140;5.428;2022-09-09T03:56:37;7.18;;;3.90;;
72115;SDS011;59991;52.140;5.428;2022-09-09T03:57:09;6.05;;;4.85;;
72115;SDS011;59991;52.140;5.428;2022-09-09T03:57:41;5.47;;;4.75;;
72115;SDS011;59991;52.140;5.428;2022-09-09T03:58:13;7.13;;;4.60;;
72115;SDS011;59991;52.140;5.428;2022-09-09T03:58:45;4.90;;;4.18;;
72115;SDS011;59991;52.140;5.428;2022-09-09T03:59:17;6.85;;;5.60;;
72115;SDS011;59991;52.140;5.428;2022-09-09T03:59:48;5.28;;;4.78;;
72115;SDS011;59991;52.140;5.428;2022-09-09T04:00:19;5.57;;;4.60;;
72115;SDS011;59991;52.140;5.428;2022-09-09T04:00:54;7.67;;;5.60;;
72115;SDS011;59991;52.140;5.428;2022-09-09T04:01:37;5.18;;;4.65;;
72115;SDS011;59991;52.140;5.428;2022-09-09T04:02:08;6.70;;;4.95;;
72115;SDS011;59991;52.140;5.428;2022-09-09T04:02:40;5.22;;;4.82;;
72115;SDS011;59991;52.140;5.428;2022-09-09T04:03:11;4.88;;;4.35;;
72115;SDS011;59991;52.140;5.428;2022-09-09T04:03:43;4.90;;;4.40;;
72115;SDS011;59991;52.140;5.428;2022-09-09T04:04:15;5.63;;;4.45;;
72115;SDS011;59991;52.140;5.428;2022-09-09T04:04:47;5.60;;;5.07;;
72115;SDS011;59991;52.140;5.428;2022-09-09T04:05:18;9.40;;;5.75;;
72115;SDS011;59991;52.140;5.428;2022-09-09T04:05:53;5.30;;;4.63;;
72115;SDS011;59991;52.140;5.428;2022-09-09T04:06:25;5.53;;;4.97;;
72115;SDS011;59991;52.140;5.428;2022-09-09T04:06:57;5.00;;;4.53;;
72115;SDS011;59991;52.140;5.428;2022-09-09T04:07:28;7.28;;;4.57;;
72115;SDS011;59991;52.140;5.428;2022-09-09T04:08:00;5.55;;;5.05;;
72115;SDS011;59991;52.140;5.428;2022-09-09T04:08:31;6.40;;;4.97;;
72115;SDS011;59991;52.140;5.428;2022-09-09T04:09:03;8.18;;;5.07;;
72115;SDS011;59991;52.140;5.428;2022-09-09T04:09:34;6.38;;;4.93;;
72115;SDS011;59991;52.140;5.428;2022-09-09T04:10:06;11.50;;;5.20;;
72115;SDS011;59991;52.140;5.428;2022-09-09T04:10:38;5.22;;;4.72;;
72115;SDS011;59991;52.140;5.428;2022-09-09T04:11:09;5.45;;;4.95;;
72115;SDS011;59991;52.140;5.428;2022-09-09T04:11:41;5.03;;;4.50;;
72115;SDS011;59991;52.140;5.428;2022-09-09T04:12:12;7.78;;;4.82;;
72115;SDS011;59991;52.140;5.428;2022-09-09T04:12:44;5.45;;;4.50;;
72115;SDS011;59991;52.140;5.428;2022-09-09T04:13:19;5.20;;;4.75;;
72115;SDS011;59991;52.140;5.428;2022-09-09T04:13:51;7.05;;;5.03;;